Time;durP1;ratioP1;P1;durP2;ratioP2;P2;SDS_P1;SDS_P2;PMS_P1;PMS_P2;Temp;Humidity;BMP_temperature;BMP_pressure;BME280_temperature;BME280_humidity;BME280_pressure;Samples;Min_cycle;Max_cycle;Signal;HPM_P1;HPM_P2
2021/03/28 00:02:49;;;;;;;52.27;26.87;;;;;;;-1.74;84.31;93845.09;1819919;78;21219;-75
2021/03/28 00:05:30;;;;;;;42.63;23.37;;;;;;;-1.77;84.31;93852.92;1788352;77;22344;-74
2021/03/28 00:08:05;;;;;;;47.20;23.50;;;;;;;-1.82;84.53;93853.84;1822697;78;21103;-74
2021/03/28 00:10:43;;;;;;;36.50;21.97;;;;;;;-1.82;84.87;93857.06;1878953;76;20935;-74
2021/03/28 00:13:17;;;;;;;35.13;20.73;;;;;;;-1.84;84.80;93861.91;1828167;76;21135;-77
2021/03/28 00:16:00;;;;;;;34.97;19.07;;;;;;;-1.82;84.98;93866.39;1788671;80;21144;-74
2021/03/28 00:19:00;;;;;;;28.50;15.83;;;;;;;-1.87;84.94;93861.98;1806545;78;21116;-73
2021/03/28 00:21:42;;;;;;;38.20;19.67;;;;;;;-1.93;85.62;93857.87;1809092;79;21132;-74
2021/03/28 00:24:29;;;;;;;40.73;23.00;;;;;;;-2.03;85.77;93852.27;1815091;78;21055;-75
2021/03/28 00:27:21;;;;;;;28.23;16.43;;;;;;;-2.09;86.15;93847.36;1811768;79;21132;-75
2021/03/28 00:29:53;;;;;;;28.33;17.63;;;;;;;-2.07;86.36;93857.97;1805647;79;21101;-75
2021/03/28 00:32:24;;;;;;;26.67;16.37;;;;;;;-2.02;86.31;93849.05;1805556;79;21361;-73
2021/03/28 00:34:53;;;;;;;25.07;15.53;;;;;;;-2.03;86.17;93850.13;1805722;79;21060;-74
2021/03/28 00:37:27;;;;;;;27.07;15.77;;;;;;;-2.02;86.06;93862.38;1802238;79;21563;-73
2021/03/28 00:39:59;;;;;;;32.30;18.90;;;;;;;-2.03;85.93;93849.60;1805576;79;21046;-74
2021/03/28 00:42:38;;;;;;;32.37;18.87;;;;;;;-2.07;86.39;93855.30;1805683;79;21140;-74
2021/03/28 00:45:20;;;;;;;29.70;17.07;;;;;;;-2.04;86.59;93852.00;1783601;79;22637;-74
2021/03/28 00:48:08;;;;;;;34.93;19.73;;;;;;;-1.99;86.50;93846.56;1806273;79;21085;-75
2021/03/28 00:51:17;;;;;;;31.53;18.70;;;;;;;-1.91;86.42;93850.36;1805921;79;21193;-76
2021/03/28 00:54:03;;;;;;;31.57;18.33;;;;;;;-1.87;86.31;93853.20;1818753;76;21639;-73
2021/03/28 00:56:45;;;;;;;25.03;15.47;;;;;;;-1.85;86.30;93849.13;1845326;76;21050;-74
2021/03/28 00:59:32;;;;;;;37.07;21.10;;;;;;;-1.82;86.32;93850.40;1781264;79;21378;-73
2021/03/28 01:02:14;;;;;;;39.57;22.27;;;;;;;-1.85;86.04;93849.13;1764992;81;21078;-76
2021/03/28 01:04:59;;;;;;;38.73;22.07;;;;;;;-1.86;85.95;93856.89;1796145;79;21564;-77
2021/03/28 01:07:42;;;;;;;45.13;24.23;;;;;;;-1.88;85.78;93851.61;1807199;79;21084;-77
2021/03/28 01:10:35;;;;;;;54.33;28.63;;;;;;;-1.93;85.64;93848.54;1836737;75;21054;-77
2021/03/28 01:13:43;;;;;;;60.63;31.30;;;;;;;-2.00;85.44;93841.52;1831999;75;21140;-78
2021/03/28 01:16:37;;;;;;;46.80;26.07;;;;;;;-2.05;85.32;93841.11;1803067;79;21147;-78
2021/03/28 01:19:35;;;;;;;37.50;21.40;;;;;;;-2.04;85.37;93843.23;1803026;79;21547;-77
2021/03/28 01:22:09;;;;;;;39.50;21.90;;;;;;;-2.05;85.30;93839.78;1806570;79;21112;-77
2021/03/28 01:24:53;;;;;;;43.13;22.73;;;;;;;-2.07;85.52;93839.31;1808532;79;21044;-78
2021/03/28 01:27:48;;;;;;;44.13;22.63;;;;;;;-2.03;85.90;93836.80;1810342;79;21360;-78
2021/03/28 01:30:24;;;;;;;44.95;23.77;;;;;;;-1.98;85.80;93842.02;1816143;78;21144;-77
2021/03/28 01:33:02;;;;;;;40.40;23.10;;;;;;;-1.99;85.68;93839.12;1816294;78;21143;-78
2021/03/28 01:35:35;;;;;;;38.47;23.80;;;;;;;-1.99;85.58;93843.11;1805813;79;21045;-79
2021/03/28 01:38:36;;;;;;;42.97;24.13;;;;;;;-1.99;85.68;93840.45;1828686;77;21172;-78
2021/03/28 01:41:20;;;;;;;47.07;23.60;;;;;;;-1.94;85.84;93854.97;1851238;77;21533;-79
2021/03/28 01:44:14;;;;;;;60.07;27.83;;;;;;;-1.88;86.30;93876.42;1807626;78;21085;-78
2021/03/28 01:47:15;;;;;;;68.27;30.70;;;;;;;-1.81;86.76;93867.41;1793534;78;21116;-78
2021/03/28 01:50:12;;;;;;;59.50;29.30;;;;;;;-1.73;86.17;93865.36;1803410;78;21104;-78
2021/03/28 01:52:47;;;;;;;58.97;30.90;;;;;;;-1.76;85.17;93865.18;1807409;79;21100;-79
2021/03/28 01:55:26;;;;;;;60.55;30.75;;;;;;;-1.87;85.09;93861.98;1787795;78;21385;-78
2021/03/28 01:58:23;;;;;;;68.73;31.90;;;;;;;-1.89;85.35;93860.71;1807854;78;21116;-78
2021/03/28 02:01:20;;;;;;;70.20;31.90;;;;;;;-1.90;85.37;93858.59;1799168;77;21094;-77
2021/03/28 02:04:06;;;;;;;62.27;30.23;;;;;;;-1.89;85.46;93858.05;1805738;78;21074;-77
2021/03/28 02:06:42;;;;;;;62.30;27.67;;;;;;;-1.86;85.47;93859.55;1811526;78;21178;-78
2021/03/28 02:09:44;;;;;;;68.33;32.90;;;;;;;-1.81;85.40;93863.41;1760907;78;21585;-77
2021/03/28 02:12:21;;;;;;;57.97;28.60;;;;;;;-1.83;85.11;93858.16;1840420;77;21310;-78
2021/03/28 02:14:57;;;;;;;65.37;29.50;;;;;;;-1.91;85.15;93853.58;1827765;77;22185;-79
2021/03/28 02:17:49;;;;;;;51.47;26.00;;;;;;;-2.02;85.17;93846.39;1842505;77;21628;-78
2021/03/28 02:20:45;;;;;;;51.23;25.60;;;;;;;-2.11;85.48;93847.66;1746630;80;21171;-78
2021/03/28 02:23:39;;;;;;;53.30;25.57;;;;;;;-2.17;85.87;93854.77;1853289;77;22244;-78
2021/03/28 02:26:28;;;;;;;54.90;27.20;;;;;;;-2.24;86.29;93847.20;1801949;77;21497;-78
2021/03/28 02:29:28;;;;;;;47.47;24.90;;;;;;;-2.27;86.85;93843.80;1826953;78;21154;-78
2021/03/28 02:32:36;;;;;;;44.27;22.57;;;;;;;-2.24;87.19;93841.31;1842079;77;21047;-77
2021/03/28 02:35:29;;;;;;;35.97;18.60;;;;;;;-2.24;87.20;93835.98;1830161;77;21162;-77
2021/03/28 02:38:23;;;;;;;70.73;31.13;;;;;;;-2.23;86.87;93840.77;1842095;77;21147;-78
2021/03/28 02:41:04;;;;;;;86.35;37.00;;;;;;;-2.23;86.83;93843.43;1834612;77;21121;-78
2021/03/28 02:44:04;;;;;;;90.77;39.37;;;;;;;-2.21;86.82;93838.05;1839748;77;21153;-78
2021/03/28 02:47:13;;;;;;;94.87;42.20;;;;;;;-2.20;86.31;93840.95;1791227;79;21064;-74
2021/03/28 02:49:52;;;;;;;101.80;43.70;;;;;;;-2.29;85.85;93838.79;1805676;78;21062;-78
2021/03/28 02:53:04;;;;;;;105.07;47.70;;;;;;;-2.37;85.72;93841.38;1775711;79;21274;-75
2021/03/28 02:56:11;;;;;;;98.00;46.43;;;;;;;-2.43;85.55;93843.39;1775721;79;21085;-74
2021/03/28 02:59:04;;;;;;;86.07;44.17;;;;;;;-2.45;85.46;93841.56;1775757;80;21156;-76
2021/03/28 03:02:26;;;;;;;68.57;38.37;;;;;;;-2.46;85.39;93838.11;1761105;80;21074;-75
2021/03/28 03:05:06;;;;;;;72.27;38.07;;;;;;;-2.46;85.11;93843.98;1744108;81;21165;-73
2021/03/28 03:07:54;;;;;;;70.20;37.93;;;;;;;-2.52;85.02;93841.19;1744741;81;21712;-75
2021/03/28 03:10:57;;;;;;;74.23;37.77;;;;;;;-2.56;85.14;93845.00;1745366;80;21090;-75
2021/03/28 03:13:56;;;;;;;72.47;37.33;;;;;;;-2.58;85.13;93838.42;1763055;80;21145;-74
2021/03/28 03:17:14;;;;;;;70.47;34.10;;;;;;;-2.56;85.19;93833.56;1707191;81;21111;-74
2021/03/28 03:20:08;;;;;;;81.33;36.67;;;;;;;-2.60;85.27;93830.72;1766234;80;21503;-74
2021/03/28 03:23:18;;;;;;;88.17;42.47;;;;;;;-2.64;85.43;93831.64;1763310;80;21235;-76
2021/03/28 03:26:08;;;;;;;84.40;39.43;;;;;;;-2.69;85.49;93831.22;1766498;79;21189;-77
2021/03/28 03:28:58;;;;;;;92.53;43.97;;;;;;;-2.73;85.40;93831.03;1669228;85;21253;-77
2021/03/28 03:32:07;;;;;;;88.87;44.13;;;;;;;-2.79;85.37;93826.90;1713014;79;21128;-76
2021/03/28 03:34:55;;;;;;;89.70;43.93;;;;;;;-2.82;85.41;93828.86;1778020;80;21186;-76
2021/03/28 03:37:40;;;;;;;91.93;43.43;;;;;;;-2.81;85.48;93826.43;1749351;80;22236;-75
2021/03/28 03:40:18;;;;;;;87.37;42.30;;;;;;;-2.81;85.66;93828.31;1741497;82;21214;-75
2021/03/28 03:43:12;;;;;;;75.63;39.50;;;;;;;-2.74;85.86;93834.79;1723527;83;21080;-76
2021/03/28 03:45:51;;;;;;;88.13;40.53;;;;;;;-2.68;85.85;93836.77;1814110;78;21462;-75
2021/03/28 03:48:39;;;;;;;99.90;46.57;;;;;;;-2.65;85.73;93834.06;1790107;78;21164;-76
2021/03/28 03:51:25;;;;;;;94.43;45.70;;;;;;;-2.69;85.41;93845.86;1761119;80;21634;-76
2021/03/28 03:54:11;;;;;;;89.22;43.33;;;;;;;-2.78;85.20;93845.80;1761711;80;25524;-74
2021/03/28 03:57:26;;;;;;;78.70;41.28;;;;;;;-2.84;85.18;93846.98;1751085;81;21192;-74
2021/03/28 04:00:06;;;;;;;70.85;39.90;;;;;;;-2.88;85.40;93841.24;1761314;79;21155;-75
2021/03/28 04:02:55;;;;;;;80.57;40.70;;;;;;;-2.92;85.44;93849.58;1717868;81;21075;-77
2021/03/28 04:06:03;;;;;;;76.60;38.63;;;;;;;-2.99;85.29;93847.33;1772690;79;21723;-75
2021/03/28 04:09:28;;;;;;;85.43;43.53;;;;;;;-3.02;85.29;93838.61;1786359;79;21587;-76
2021/03/28 04:12:33;;;;;;;85.97;43.77;;;;;;;-3.02;85.38;93833.28;1749953;79;21145;-75
2021/03/28 04:15:09;;;;;;;55.58;29.45;;;;;;;-3.07;85.24;93833.41;1688568;83;21091;-77
2021/03/28 04:18:17;;;;;;;58.40;28.20;;;;;;;-3.15;85.47;93827.47;1760770;81;21206;-75
2021/03/28 04:21:20;;;;;;;50.67;24.73;;;;;;;-3.25;86.14;93831.12;1771526;80;21382;-75
2021/03/28 04:24:08;;;;;;;45.17;22.63;;;;;;;-3.25;86.92;93823.92;1774937;80;21143;-75
2021/03/28 04:27:07;;;;;;;39.37;21.67;;;;;;;-3.25;87.76;93816.48;1728055;82;21145;-76
2021/03/28 04:29:36;;;;;;;34.27;19.03;;;;;;;-3.21;88.19;93822.23;1747188;81;21143;-74
2021/03/28 04:32:26;;;;;;;40.80;22.90;;;;;;;-3.12;88.43;93819.68;1731851;82;21075;-76
2021/03/28 04:35:25;;;;;;;42.53;21.63;;;;;;;-3.01;88.71;93811.72;1779788;80;21366;-76
2021/03/28 04:38:37;;;;;;;46.73;25.53;;;;;;;-2.90;88.19;93806.92;1750081;81;21154;-76
2021/03/28 04:41:22;;;;;;;60.93;33.83;;;;;;;-2.89;87.63;93816.50;1787253;80;21064;-75
2021/03/28 04:44:30;;;;;;;63.43;34.20;;;;;;;-2.88;87.25;93802.66;1780660;80;21060;-77
2021/03/28 04:47:36;;;;;;;71.93;35.93;;;;;;;-2.86;87.22;93801.24;1747736;81;21517;-76
2021/03/28 04:50:35;;;;;;;61.60;34.40;;;;;;;-2.86;86.64;93801.79;1748266;81;22213;-75
2021/03/28 04:53:26;;;;;;;59.67;33.50;;;;;;;-2.86;86.69;93799.91;1747813;81;21072;-75
2021/03/28 04:56:08;;;;;;;57.73;34.93;;;;;;;-2.81;86.62;93795.04;1759642;81;21107;-73
2021/03/28 04:58:48;;;;;;;63.10;37.57;;;;;;;-2.78;86.62;93804.54;1749024;81;21155;-76
2021/03/28 05:01:49;;;;;;;74.00;44.30;;;;;;;-2.78;86.48;93803.20;1671118;84;21669;-76
2021/03/28 05:04:49;;;;;;;81.67;44.93;;;;;;;-2.75;86.34;93807.91;1716243;83;21410;-77
2021/03/28 05:07:39;;;;;;;70.00;40.30;;;;;;;-2.69;86.33;93804.05;1722199;82;21558;-77
2021/03/28 05:10:35;;;;;;;70.37;43.10;;;;;;;-2.31;87.12;93796.22;1721137;83;21127;-75
2021/03/28 05:13:33;;;;;;;71.17;38.03;;;;;;;-1.83;86.39;93791.52;1745013;81;21065;-77
2021/03/28 05:16:47;;;;;;;57.63;34.43;;;;;;;-1.30;86.01;93781.23;1741433;82;21155;-75
2021/03/28 05:19:56;;;;;;;57.65;37.65;;;;;;;-0.81;84.37;93774.67;1753589;81;21606;-76
2021/03/28 05:22:56;;;;;;;46.48;27.87;;;;;;;-0.34;83.03;93769.45;1775606;80;21079;-76
2021/03/28 05:25:58;;;;;;;40.25;24.12;;;;;;;0.06;81.77;93767.05;1740332;82;21064;-74
2021/03/28 05:28:54;;;;;;;38.85;24.25;;;;;;;0.41;80.99;93760.98;1738261;82;21061;-75
2021/03/28 05:31:40;;;;;;;40.90;22.55;;;;;;;0.89;80.87;93765.13;1717602;82;23200;-74
2021/03/28 05:34:33;;;;;;;39.53;24.12;;;;;;;1.44;79.21;93766.75;1779617;80;21215;-75
2021/03/28 05:37:32;;;;;;;41.37;27.85;;;;;;;1.83;76.65;93755.27;1754437;80;21613;-74
2021/03/28 05:40:28;;;;;;;33.20;21.48;;;;;;;2.09;74.57;93773.77;1756252;81;21510;-75
2021/03/28 05:43:33;;;;;;;42.95;24.87;;;;;;;2.31;73.57;93780.62;1756689;81;21143;-75
2021/03/28 05:46:41;;;;;;;49.45;31.20;;;;;;;2.50;72.46;93779.52;1753724;81;21108;-76
2021/03/28 05:49:43;;;;;;;74.67;47.15;;;;;;;2.36;69.62;93786.54;1744714;81;21655;-75
2021/03/28 05:52:31;;;;;;;82.72;51.30;;;;;;;1.92;68.91;93788.94;1727844;82;21046;-72
2021/03/28 05:55:35;;;;;;;78.40;49.80;;;;;;;1.49;69.46;93766.55;1844094;77;22226;-76
2021/03/28 05:58:17;;;;;;;81.80;48.75;;;;;;;1.18;70.06;93766.41;1783012;80;20938;-76
2021/03/28 06:01:09;;;;;;;40.43;25.05;;;;;;;1.01;71.23;93745.09;1813814;79;21258;-74
2021/03/28 06:04:00;;;;;;;53.50;32.13;;;;;;;1.07;72.50;93743.80;1755150;79;20958;-73
2021/03/28 06:06:45;;;;;;;41.05;24.52;;;;;;;1.04;72.81;93755.17;1851957;76;21041;-77
2021/03/28 06:09:58;;;;;;;39.00;22.95;;;;;;;0.92;73.52;93761.23;1860059;76;21489;-73
2021/03/28 06:12:52;;;;;;;34.50;23.12;;;;;;;0.85;74.45;93774.36;1846388;77;21054;-76
2021/03/28 06:15:54;;;;;;;49.20;31.00;;;;;;;0.82;75.04;93780.91;1817257;79;22435;-76
2021/03/28 06:18:57;;;;;;;57.88;35.40;;;;;;;0.70;75.04;93786.97;1769001;80;21529;-74
2021/03/28 06:21:48;;;;;;;66.90;40.23;;;;;;;0.55;75.04;93795.55;1751924;81;21354;-75
2021/03/28 06:24:56;;;;;;;70.52;41.83;;;;;;;0.38;75.28;93801.22;1861057;76;20922;-76
2021/03/28 06:28:01;;;;;;;62.88;36.50;;;;;;;0.25;75.28;93808.89;1748246;76;21642;-77
2021/03/28 06:31:02;;;;;;;52.93;32.45;;;;;;;0.02;75.48;93808.34;1834673;78;21035;-74
2021/03/28 06:34:02;;;;;;;51.83;31.12;;;;;;;-0.17;76.12;93803.91;1772445;81;21075;-77
2021/03/28 06:36:51;;;;;;;48.33;31.40;;;;;;;-0.22;76.91;93803.53;1776323;80;21652;-73
2021/03/28 06:40:05;;;;;;;60.88;37.17;;;;;;;-0.25;77.35;93804.94;1749010;80;21057;-74
2021/03/28 06:42:55;;;;;;;58.98;36.38;;;;;;;-0.24;77.66;93805.72;1853875;76;21052;-74
2021/03/28 06:45:34;;;;;;;56.50;36.13;;;;;;;-0.21;78.48;93798.41;1784152;76;21140;-74
2021/03/28 06:48:22;;;;;;;58.90;34.33;;;;;;;-0.13;78.95;93794.93;1830768;77;21097;-73
2021/03/28 06:51:27;;;;;;;59.10;36.65;;;;;;;-0.04;78.88;93792.22;1777526;77;21368;-76
2021/03/28 06:54:35;;;;;;;56.25;35.17;;;;;;;0.08;78.78;93782.23;1749602;80;21088;-74
2021/03/28 06:57:29;;;;;;;57.90;34.88;;;;;;;0.18;78.97;93783.19;1770766;80;21120;-75
2021/03/28 07:00:37;;;;;;;55.30;32.15;;;;;;;0.27;79.31;93787.19;1776581;80;21678;-73
2021/03/28 07:03:42;;;;;;;52.17;31.60;;;;;;;0.37;79.50;93788.94;1780553;80;21539;-74
2021/03/28 07:06:52;;;;;;;52.50;32.17;;;;;;;0.39;79.18;93777.92;1780497;80;23555;-74
2021/03/28 07:09:48;;;;;;;46.58;27.02;;;;;;;0.33;79.63;93781.87;1780546;80;21143;-74
2021/03/28 07:13:09;;;;;;;52.13;29.80;;;;;;;0.37;79.85;93786.81;1780441;79;21068;-76
2021/03/28 07:16:06;;;;;;;47.60;30.52;;;;;;;0.37;80.10;93794.84;1781142;80;21258;-73
2021/03/28 07:19:09;;;;;;;48.87;31.45;;;;;;;0.34;80.54;93788.79;1782397;80;21515;-76
2021/03/28 07:22:10;;;;;;;49.80;31.30;;;;;;;0.32;80.85;93793.69;1780611;80;21191;-73
2021/03/28 07:25:17;;;;;;;55.52;32.83;;;;;;;0.29;81.07;93801.80;1758197;80;21534;-75
2021/03/28 07:28:22;;;;;;;54.25;31.65;;;;;;;0.28;81.38;93816.28;1780300;80;21131;-75
2021/03/28 07:31:24;;;;;;;46.55;28.25;;;;;;;0.29;81.76;93819.73;1804383;79;21169;-75
2021/03/28 07:34:25;;;;;;;45.05;27.82;;;;;;;0.32;82.07;93839.17;1769928;80;21530;-75
2021/03/28 07:37:26;;;;;;;45.28;27.42;;;;;;;0.38;82.21;93840.57;1855030;77;21351;-76
2021/03/28 07:40:28;;;;;;;42.17;25.37;;;;;;;0.44;82.17;93844.06;1794393;79;21053;-72
2021/03/28 07:43:07;;;;;;;41.08;26.45;;;;;;;0.48;82.33;93850.91;1862251;77;21030;-75
2021/03/28 07:46:30;;;;;;;44.90;27.62;;;;;;;0.50;82.60;93867.44;1866018;76;21052;-75
2021/03/28 07:49:18;;;;;;;45.45;29.00;;;;;;;0.49;82.89;93868.55;1875230;76;21448;-75
2021/03/28 07:52:18;;;;;;;47.10;29.60;;;;;;;0.44;83.28;93886.09;1781194;78;21357;-74
2021/03/28 07:55:23;;;;;;;47.38;28.62;;;;;;;0.43;83.75;93889.33;1787703;77;21602;-75
2021/03/28 07:58:25;;;;;;;59.73;36.83;;;;;;;0.42;84.10;93886.43;1785183;79;21159;-75
2021/03/28 08:01:14;;;;;;;58.73;37.35;;;;;;;0.39;84.69;93879.59;1804079;78;21124;-76
2021/03/28 08:03:47;;;;;;;55.52;34.67;;;;;;;0.35;85.13;93874.65;1812634;79;21128;-78
2021/03/28 08:06:59;;;;;;;55.05;35.80;;;;;;;0.34;85.50;93873.87;1798262;78;21173;-76
2021/03/28 08:09:34;;;;;;;51.15;32.40;;;;;;;0.31;85.84;93873.16;1767970;80;21516;-81
2021/03/28 08:12:53;;;;;;;54.70;31.60;;;;;;;0.29;86.23;93867.89;1777533;79;21144;-77
2021/03/28 08:15:45;;;;;;;48.15;29.98;;;;;;;0.31;86.54;93860.34;1761637;79;21132;-76
2021/03/28 08:18:27;;;;;;;56.53;32.80;;;;;;;0.35;86.75;93864.73;1799348;77;21044;-79
2021/03/28 08:21:14;;;;;;;59.27;33.13;;;;;;;0.37;86.95;93874.55;1870886;76;21063;-79
2021/03/28 08:24:24;;;;;;;48.10;31.95;;;;;;;0.39;87.16;93868.89;1781244;79;21080;-82
2021/03/28 08:27:25;;;;;;;32.53;20.92;;;;;;;0.45;87.39;93859.56;1796084;79;21634;-81
2021/03/28 08:30:19;;;;;;;27.17;18.15;;;;;;;0.50;87.39;93860.75;1779043;80;21579;-79
2021/03/28 08:32:56;;;;;;;32.40;20.10;;;;;;;0.56;87.37;93870.15;1852147;75;21035;-80
2021/03/28 08:35:47;;;;;;;35.38;21.95;;;;;;;0.55;87.28;93865.91;1891566;75;21734;-80
2021/03/28 08:38:59;;;;;;;38.02;25.00;;;;;;;0.59;87.31;93876.77;1812677;78;21060;-79
2021/03/28 08:41:54;;;;;;;32.00;21.20;;;;;;;0.60;87.33;93872.44;1855851;76;21041;-76
2021/03/28 08:44:47;;;;;;;52.17;34.88;;;;;;;0.63;87.51;93893.75;1814378;76;21064;-80
2021/03/28 08:47:57;;;;;;;56.98;39.05;;;;;;;0.61;87.36;93899.98;1815850;76;21091;-76
2021/03/28 08:50:56;;;;;;;35.52;23.75;;;;;;;0.60;87.51;93891.70;1797107;76;21365;-78
2021/03/28 08:56:50;;;;;;;27.27;19.10;;;;;;;0.56;87.49;93897.47;1797568;79;21147;-78
2021/03/28 08:59:35;;;;;;;18.95;12.58;;;;;;;0.55;87.75;93905.27;1845576;76;21182;-78
2021/03/28 09:02:16;;;;;;;;;;;;;;;0.56;87.84;93909.52;1856909;76;21142;-80
2021/03/28 09:05:21;;;;;;;14.93;10.53;;;;;;;0.58;87.97;93921.48;1873149;76;22221;-80
2021/03/28 09:08:09;;;;;;;15.63;10.37;;;;;;;0.61;88.02;93924.08;1805869;76;21135;-79
2021/03/28 09:11:16;;;;;;;16.35;12.60;;;;;;;0.59;87.87;93926.27;1873910;75;21083;-79
2021/03/28 09:14:21;;;;;;;18.67;13.18;;;;;;;0.57;87.83;93935.97;1884640;75;21139;-79
2021/03/28 09:17:23;;;;;;;11.45;8.55;;;;;;;0.50;87.90;93932.21;1819898;78;21189;-79
2021/03/28 09:20:10;;;;;;;11.03;7.70;;;;;;;0.46;88.12;93930.17;1873442;75;21791;-80
2021/03/28 09:23:08;;;;;;;6.92;4.80;;;;;;;0.41;88.42;93928.98;1850965;75;21087;-81
2021/03/28 09:25:41;;;;;;;6.50;4.58;;;;;;;0.38;88.62;93940.90;1768639;80;21072;-80
2021/03/28 09:28:27;;;;;;;11.73;9.08;;;;;;;0.39;88.94;93945.14;1773800;79;21141;-80
2021/03/28 09:31:03;;;;;;;20.00;14.38;;;;;;;0.41;89.10;93944.25;1839403;75;21111;-80
2021/03/28 09:33:42;;;;;;;10.53;6.62;;;;;;;0.44;88.94;93951.09;1892516;75;21419;-79
2021/03/28 09:36:22;;;;;;;3.05;2.72;;;;;;;0.46;89.00;93953.47;1882307;75;21107;-80
2021/03/28 09:39:01;;;;;;;2.20;2.00;;;;;;;0.47;88.92;93957.71;1904923;75;21099;-79
2021/03/28 09:42:09;;;;;;;2.37;2.05;;;;;;;0.45;88.95;93952.69;1889040;75;21605;-80
2021/03/28 09:44:55;;;;;;;2.37;2.10;;;;;;;0.48;89.08;93954.70;1904731;75;21032;-80
2021/03/28 09:47:46;;;;;;;2.72;2.52;;;;;;;0.53;89.13;93953.77;1886359;76;21354;-80
2021/03/28 09:50:54;;;;;;;3.17;2.65;;;;;;;0.60;89.10;93960.77;1829268;76;21096;-79
2021/03/28 09:53:50;;;;;;;4.17;3.25;;;;;;;0.64;89.02;93963.56;1780329;80;21111;-79
2021/03/28 09:56:51;;;;;;;5.17;3.75;;;;;;;0.67;88.86;93966.39;1871660;76;21131;-80
2021/03/28 09:59:59;;;;;;;8.85;4.75;;;;;;;0.70;88.84;93978.36;1821172;75;21637;-80
2021/03/28 10:03:02;;;;;;;9.38;6.08;;;;;;;0.77;88.85;93977.88;1891556;75;22624;-80
2021/03/28 10:05:34;;;;;;;5.87;3.98;;;;;;;0.87;88.71;93973.52;1883015;75;21115;-81
2021/03/28 10:08:12;;;;;;;8.23;5.90;;;;;;;0.93;88.38;93974.34;1807457;76;21105;-80
2021/03/28 10:10:56;;;;;;;11.03;8.28;;;;;;;0.98;88.39;93977.42;1815934;78;21108;-79
2021/03/28 10:14:19;;;;;;;20.95;13.13;;;;;;;1.08;88.36;93973.03;1814034;78;21109;-79
2021/03/28 10:17:46;;;;;;;20.10;13.43;;;;;;;1.19;87.98;93980.94;1846085;77;21037;-80
2021/03/28 10:20:52;;;;;;;18.10;12.13;;;;;;;1.26;87.76;93980.44;1795822;77;21204;-79
2021/03/28 10:23:50;;;;;;;37.48;20.43;;;;;;;1.30;87.18;93984.05;1828606;78;21675;-80
2021/03/28 10:26:30;;;;;;;53.85;27.98;;;;;;;1.28;87.06;93992.98;1756110;78;21175;-80
2021/03/28 10:29:30;;;;;;;34.75;20.20;;;;;;;1.27;86.76;94002.09;1757600;80;21156;-80
2021/03/28 10:32:16;;;;;;;48.52;26.15;;;;;;;1.21;86.63;94004.19;1773479;79;21816;-80
2021/03/28 10:35:10;;;;;;;31.20;18.65;;;;;;;1.12;86.72;94012.01;1779564;80;21633;-80
2021/03/28 10:38:17;;;;;;;19.10;12.55;;;;;;;1.06;87.03;94009.30;1778886;80;21207;-79
2021/03/28 10:41:13;;;;;;;12.20;7.97;;;;;;;1.05;87.30;94015.73;1778684;80;21198;-79
2021/03/28 10:43:58;;;;;;;9.40;6.78;;;;;;;1.10;87.50;94019.59;1747192;80;21193;-80
2021/03/28 10:46:51;;;;;;;11.22;7.85;;;;;;;1.16;87.41;94026.33;1852127;75;22233;-80
2021/03/28 10:50:03;;;;;;;14.87;10.23;;;;;;;1.22;87.36;94019.70;1898330;75;21189;-80
2021/03/28 10:53:24;;;;;;;9.05;7.62;;;;;;;1.31;87.18;94023.13;1822724;77;21166;-81
2021/03/28 10:56:32;;;;;;;7.42;6.40;;;;;;;1.44;87.11;94025.37;1826829;77;21625;-80
2021/03/28 10:59:22;;;;;;;8.50;7.50;;;;;;;1.52;86.44;94023.76;1887509;75;21122;-81
2021/03/28 11:02:23;;;;;;;5.42;4.87;;;;;;;1.55;86.03;94030.59;1858224;76;21228;-81
2021/03/28 11:05:31;;;;;;;5.15;4.60;;;;;;;1.57;85.53;94023.56;1810769;79;21547;-81
2021/03/28 11:08:45;;;;;;;4.92;4.42;;;;;;;1.63;84.75;94030.32;1854887;74;21018;-77
2021/03/28 11:12:09;;;;;;;5.40;4.20;;;;;;;1.76;84.41;94034.66;1852190;75;21187;-80
2021/03/28 11:14:48;;;;;;;8.08;5.08;;;;;;;1.89;83.87;94040.34;1779952;80;21097;-79
2021/03/28 11:17:35;;;;;;;7.87;5.85;;;;;;;2.04;83.12;94034.97;1804390;79;22143;-80
2021/03/28 11:20:31;;;;;;;11.97;8.70;;;;;;;2.16;82.68;94036.38;1858284;75;21193;-80
2021/03/28 11:23:24;;;;;;;10.88;7.95;;;;;;;2.33;82.46;94044.88;1833756;75;21171;-78
2021/03/28 11:26:14;;;;;;;15.32;11.48;;;;;;;2.52;82.36;94041.72;1816616;78;21057;-77
2021/03/28 11:28:53;;;;;;;13.93;9.95;;;;;;;2.67;81.90;94051.86;1829519;76;21088;-78
2021/03/28 11:32:01;;;;;;;15.40;10.45;;;;;;;2.80;81.37;94043.84;1840163;76;21186;-77
2021/03/28 11:34:41;;;;;;;12.80;9.10;;;;;;;2.90;81.37;94038.06;1791547;78;21136;-77
2021/03/28 11:37:44;;;;;;;9.40;6.92;;;;;;;3.00;80.16;94051.05;1817881;78;21262;-75
2021/03/28 11:40:35;;;;;;;7.25;5.62;;;;;;;3.00;79.78;94051.62;1828654;76;21669;-77
2021/03/28 11:43:14;;;;;;;10.70;6.80;;;;;;;2.97;79.35;94053.63;1883772;75;21123;-78
2021/03/28 11:45:48;;;;;;;6.67;4.35;;;;;;;2.96;79.43;94060.90;1895441;75;21099;-77
2021/03/28 11:48:44;;;;;;;3.75;3.30;;;;;;;2.97;79.49;94065.17;1858653;77;21063;-78
2021/03/28 11:51:26;;;;;;;4.25;3.62;;;;;;;2.93;78.94;94069.61;1893644;75;21107;-77
2021/03/28 11:54:12;;;;;;;3.25;2.65;;;;;;;2.86;78.82;94065.36;1884634;75;21021;-78
2021/03/28 11:56:47;;;;;;;;;;;;;;;2.84;79.30;94064.33;1894455;75;21072;-78
2021/03/28 11:59:25;;;;;;;3.45;2.67;;;;;;;2.88;79.40;94062.55;1879308;76;21353;-78
2021/03/28 12:02:13;;;;;;;4.83;3.22;;;;;;;2.92;79.44;94064.02;1849671;76;21180;-78
2021/03/28 12:04:54;;;;;;;6.08;3.90;;;;;;;2.98;79.37;94060.02;1802421;78;21120;-77
2021/03/28 12:07:40;;;;;;;3.45;2.83;;;;;;;3.06;78.92;94067.77;1787642;79;21181;-77
2021/03/28 12:10:14;;;;;;;5.25;3.52;;;;;;;3.14;79.15;94060.95;1816719;75;21073;-78
2021/03/28 12:12:54;;;;;;;5.55;4.67;;;;;;;3.26;79.15;94063.45;1895392;75;21620;-78
2021/03/28 12:15:52;;;;;;;4.90;3.72;;;;;;;3.38;78.94;94067.49;1824250;75;21171;-78
2021/03/28 12:18:28;;;;;;;5.28;3.77;;;;;;;3.58;78.86;94064.52;1780281;79;21144;-80
2021/03/28 12:21:09;;;;;;;5.17;4.45;;;;;;;3.84;78.89;94027.88;1866650;76;21044;-80
2021/03/28 12:23:50;;;;;;;3.92;3.22;;;;;;;4.07;77.99;94063.17;1858584;75;21191;-80
2021/03/28 12:26:38;;;;;;;9.25;4.75;;;;;;;4.20;77.54;94054.52;1864265;75;22617;-80
2021/03/28 12:29:17;;;;;;;6.40;4.10;;;;;;;4.31;76.66;94063.70;1892757;75;21108;-80
2021/03/28 12:31:47;;;;;;;4.95;3.33;;;;;;;4.30;75.06;94056.19;1883853;75;21131;-79
2021/03/28 12:34:36;;;;;;;3.62;3.22;;;;;;;4.17;73.58;94061.34;1897250;75;21068;-79
2021/03/28 12:37:07;;;;;;;6.12;3.55;;;;;;;3.94;73.61;94061.03;1884403;75;21048;-79
2021/03/28 12:39:45;;;;;;;4.20;3.50;;;;;;;3.75;74.12;94056.22;1846974;77;22652;-79
2021/03/28 12:42:35;;;;;;;5.85;3.95;;;;;;;3.49;75.76;94065.16;1787938;77;21529;-79
2021/03/28 12:45:16;;;;;;;5.40;4.50;;;;;;;3.37;76.16;94061.34;1829081;77;21534;-79
2021/03/28 12:47:56;;;;;;;3.40;3.10;;;;;;;3.37;76.16;94061.34;1879385;76;21052;-78
2021/03/28 12:50:35;;;;;;;3.25;2.92;;;;;;;3.26;76.87;94061.54;1885556;76;21056;-80
2021/03/28 12:53:18;;;;;;;2.30;2.10;;;;;;;3.24;77.15;94063.02;1866312;75;21797;-80
2021/03/28 12:55:53;;;;;;;2.30;2.10;;;;;;;3.20;76.66;94066.11;1825324;77;21578;-79
2021/03/28 12:58:43;;;;;;;2.50;2.20;;;;;;;3.20;75.74;94063.42;1779653;80;21113;-80
2021/03/28 13:01:14;;;;;;;2.30;2.00;;;;;;;3.13;75.28;94067.45;1812052;79;21164;-79
2021/03/28 13:03:45;;;;;;;2.33;1.98;;;;;;;3.05;76.21;94068.33;1863578;76;21174;-79
2021/03/28 13:06:45;;;;;;;5.72;3.98;;;;;;;3.00;76.29;94073.11;1839317;75;21349;-79
2021/03/28 13:09:28;;;;;;;6.40;4.78;;;;;;;2.90;76.96;94079.14;1816408;78;21519;-79
2021/03/28 13:12:17;;;;;;;8.58;5.58;;;;;;;2.78;78.11;94079.06;1814526;79;21120;-79
2021/03/28 13:14:46;;;;;;;11.28;6.67;;;;;;;2.70;78.95;94079.15;1827035;77;21107;-80
2021/03/28 13:17:20;;;;;;;10.98;6.50;;;;;;;2.59;79.62;94080.88;1867778;75;21123;-80
2021/03/28 13:19:53;;;;;;;10.10;6.75;;;;;;;2.58;80.30;94086.59;1827178;75;21078;-80
2021/03/28 13:22:45;;;;;;;16.67;10.35;;;;;;;2.57;80.68;94087.72;1894454;75;21079;-80
2021/03/28 13:25:22;;;;;;;17.55;8.00;;;;;;;2.57;80.77;94085.81;1759143;79;21609;-79
2021/03/28 13:28:09;;;;;;;9.83;5.95;;;;;;;2.63;80.87;94085.86;1858449;77;21466;-80